Search for airport 
image banner adimage banner adimage banner ad
image banner ad

N47 - Pottstown Muni

Located in Pottstown, United States

ICAO - N47, IATA -

Data provided by Airmate  

General information

Coordinates: N40°15'38" W75°40'15"
Elevation is 256 feet MSL.
Magnetic variation is -12° East
View others Airports in Pennsylvania

Operational data

Special qualification required
Current time UTC:
Current local time:
Weather at : KPTW - Heritage Field ( 10 km )
METAR: KPTW 071254Z AUTO 06007KT 10SM CLR 12/00 A2994 RMK AO2 SLP136 T01170000
View NOTAMs / SUP AIP / TFR affecting this airport [VIEW]
Communications frequencies: [VIEW]

Runways:

RWY identifierQFULength (ft)Width (ft)SurfaceLDA (ft)
0867°270475ASPH
26247°270475ASPH

Airport contact information

Address: Pottstown United States

Other aviation service providers

Flight schools

Fly Elite, Llc

Fly Elite, Llc
flyeliteN47@yahoo.com+1(610)495-6366

Satellite view of N47